Time;durP1;ratioP1;P1;durP2;ratioP2;P2;SDS_P1;SDS_P2;PMS_P1;PMS_P2;Temp;Humidity;BMP_temperature;BMP_pressure;BME280_temperature;BME280_humidity;BME280_pressure;Samples;Min_cycle;Max_cycle;Signal;HPM_P1;HPM_P2
2022/11/10 00:00:01;;;;;;;172.90;51.63;;;18.80;66.40;;;;;;5037989;28;20049;-85
2022/11/10 00:02:26;;;;;;;141.23;48.83;;;19.00;65.80;;;;;;5049397;28;20080;-85
2022/11/10 00:04:52;;;;;;;138.63;47.42;;;19.20;64.90;;;;;;5037109;28;20034;-90
2022/11/10 00:07:18;;;;;;;127.18;44.97;;;19.30;65.00;;;;;;5051003;28;20116;-87
2022/11/10 00:09:43;;;;;;;146.93;46.50;;;19.20;65.10;;;;;;5040124;28;20035;-86
2022/11/10 00:12:09;;;;;;;163.85;50.28;;;19.00;65.80;;;;;;5058281;28;20119;-89
2022/11/10 00:17:19;;;;;;;119.85;43.55;;;18.90;65.80;;;;;;5052900;28;20111;-89
2022/11/10 00:19:44;;;;;;;111.97;43.78;;;18.70;66.30;;;;;;5050737;28;20021;-88
2022/11/10 00:22:10;;;;;;;111.72;43.40;;;18.40;67.20;;;;;;5051702;28;20033;-86
2022/11/10 00:24:36;;;;;;;119.15;44.08;;;18.00;68.20;;;;;;5035389;28;20021;-89
2022/11/10 00:27:02;;;;;;;117.60;42.80;;;18.00;68.80;;;;;;5035372;28;20029;-86
2022/11/10 00:29:27;;;;;;;137.02;46.78;;;18.00;68.40;;;;;;5035292;28;20053;-90
2022/11/10 00:31:53;;;;;;;138.98;45.50;;;18.10;68.90;;;;;;5035180;28;20063;-86
2022/11/10 00:34:19;;;;;;;164.20;47.88;;;18.40;68.20;;;;;;5073638;28;20029;-89
2022/11/10 00:36:44;;;;;;;133.05;44.00;;;18.80;67.30;;;;;;5075313;28;20058;-86
2022/11/10 00:39:11;;;;;;;120.00;43.22;;;19.00;66.70;;;;;;5075239;28;20063;-88
2022/11/10 00:41:37;;;;;;;125.80;43.88;;;19.10;66.20;;;;;;5075268;28;20388;-85
2022/11/10 00:44:02;;;;;;;121.13;41.72;;;19.10;66.20;;;;;;5075235;28;20024;-88
2022/11/10 00:46:28;;;;;;;168.80;48.00;;;19.10;66.30;;;;;;5074857;28;20047;-89
2022/11/10 00:48:54;;;;;;;153.18;46.03;;;19.30;66.20;;;;;;5075118;28;20481;-88
2022/11/10 00:51:22;;;;;;;127.28;41.90;;;19.40;65.60;;;;;;5071000;28;20029;-90
2022/11/10 00:53:49;;;;;;;114.68;42.47;;;19.50;64.90;;;;;;5051346;28;20133;-90
2022/11/10 00:56:14;;;;;;;116.43;42.17;;;19.10;65.80;;;;;;5044478;28;20088;-88
2022/11/10 00:58:40;;;;;;;158.13;47.35;;;18.70;66.70;;;;;;5035047;28;20025;-90
2022/11/10 01:01:06;;;;;;;178.20;47.70;;;18.60;67.80;;;;;;5044707;28;20034;-83
2022/11/10 01:03:33;;;;;;;188.65;49.40;;;18.80;67.30;;;;;;5049976;28;20026;-88
2022/11/10 01:06:04;;;;;;;153.02;48.15;;;19.20;66.20;;;;;;5034574;28;20025;-84
2022/11/10 01:08:30;;;;;;;204.68;52.20;;;19.40;65.60;;;;;;5052555;28;20463;-85
2022/11/10 01:11:04;;;;;;;175.10;49.50;;;19.50;65.20;;;;;;5050940;28;20022;-85
2022/11/10 01:13:30;;;;;;;192.30;50.75;;;19.60;64.70;;;;;;5051319;28;20025;-85
2022/11/10 01:15:56;;;;;;;213.82;52.40;;;19.70;64.40;;;;;;5034668;28;20033;-89
2022/11/10 01:18:22;;;;;;;196.10;50.90;;;19.70;64.20;;;;;;5052698;28;20032;-87
2022/11/10 01:20:51;;;;;;;182.50;49.28;;;19.80;64.30;;;;;;5050817;28;20022;-86
2022/11/10 01:23:17;;;;;;;167.52;47.75;;;19.80;64.30;;;;;;5023752;28;20033;-89
2022/11/10 01:25:43;;;;;;;239.15;53.45;;;19.80;64.30;;;;;;5043029;28;20033;-86
2022/11/10 01:28:09;;;;;;;214.00;52.58;;;19.80;64.30;;;;;;5053313;28;20116;-86
2022/11/10 01:30:35;;;;;;;194.82;53.75;;;19.80;64.10;;;;;;5050562;28;20025;-88
2022/11/10 01:33:00;;;;;;;177.20;50.35;;;19.90;64.20;;;;;;5047358;28;20035;-86
2022/11/10 01:35:26;;;;;;;200.27;52.47;;;19.90;63.80;;;;;;5054425;28;20025;-85
2022/11/10 01:37:52;;;;;;;199.90;51.67;;;19.90;64.10;;;;;;5045094;28;20521;-88
2022/11/10 01:40:19;;;;;;;134.02;44.00;;;19.90;64.30;;;;;;5052755;28;20020;-90
2022/11/10 01:42:44;;;;;;;222.23;52.25;;;19.80;64.40;;;;;;5049805;28;20118;-87
2022/11/10 01:45:40;;;;;;;255.02;56.53;;;19.70;64.80;;;;;;5033884;28;20490;-87
2022/11/10 01:48:07;;;;;;;164.93;46.95;;;19.80;64.20;;;;;;5012856;28;20049;-86
2022/11/10 01:50:38;;;;;;;204.55;49.90;;;19.80;64.70;;;;;;4996951;28;20038;-86
2022/11/10 01:53:12;;;;;;;179.73;46.28;;;19.80;64.70;;;;;;4996407;28;20026;-87
2022/11/10 01:55:41;;;;;;;124.45;41.83;;;19.80;64.60;;;;;;4993715;28;20650;-87
2022/11/10 01:58:08;;;;;;;143.93;43.93;;;19.80;64.50;;;;;;4995712;28;20503;-88
2022/11/10 02:00:34;;;;;;;249.10;50.30;;;19.60;65.00;;;;;;4996027;28;20362;-87
2022/11/10 02:03:11;;;;;;;182.00;48.70;;;19.60;65.10;;;;;;4996390;28;20030;-86
2022/11/10 02:05:36;;;;;;;180.23;48.50;;;19.70;64.60;;;;;;5012875;28;20180;-90
2022/11/10 02:08:04;;;;;;;179.60;48.92;;;19.60;64.50;;;;;;5012150;28;20029;-85
2022/11/10 02:10:29;;;;;;;194.30;49.65;;;19.70;64.70;;;;;;4997087;28;20029;-86
2022/11/10 02:12:55;;;;;;;177.73;47.03;;;19.80;64.40;;;;;;4995475;28;20037;-86
2022/11/10 02:15:21;;;;;;;175.55;45.78;;;19.80;64.50;;;;;;5015980;28;20033;-85
2022/11/10 02:17:47;;;;;;;293.92;56.67;;;19.80;64.30;;;;;;5023427;28;20054;-86
2022/11/10 02:20:17;;;;;;;141.07;43.15;;;19.80;64.30;;;;;;4996527;28;20160;-85
2022/11/10 02:22:42;;;;;;;170.38;47.55;;;19.80;64.40;;;;;;4996266;28;20030;-88
2022/11/10 02:25:08;;;;;;;187.15;46.83;;;19.80;64.40;;;;;;5031001;28;20032;-89
2022/11/10 02:27:34;;;;;;;197.13;48.88;;;19.80;64.40;;;;;;5052639;28;20029;-86
2022/11/10 02:30:05;;;;;;;211.23;50.03;;;19.80;64.60;;;;;;5052571;28;20021;-88
2022/11/10 02:32:31;;;;;;;200.70;49.78;;;19.80;64.40;;;;;;5053025;28;20029;-89
2022/11/10 02:34:56;;;;;;;170.57;46.33;;;19.90;64.40;;;;;;5052733;28;20025;-87
2022/11/10 02:37:22;;;;;;;187.40;49.75;;;19.90;64.30;;;;;;5049225;28;20042;-86
2022/11/10 02:39:48;;;;;;;184.43;47.75;;;19.80;64.30;;;;;;5046168;28;20482;-88
2022/11/10 02:42:13;;;;;;;160.48;47.70;;;19.80;64.30;;;;;;5032998;28;20029;-84
2022/11/10 02:44:40;;;;;;;216.98;51.47;;;19.80;64.30;;;;;;5032733;28;20021;-88
2022/11/10 02:47:06;;;;;;;212.27;51.72;;;19.60;64.50;;;;;;5032735;28;20046;-86
2022/11/10 02:49:39;;;;;;;217.35;50.60;;;19.60;64.80;;;;;;5059946;28;20017;-87
2022/11/10 02:52:05;;;;;;;176.68;49.92;;;19.50;65.00;;;;;;5073069;28;20101;-85
2022/11/10 02:54:31;;;;;;;201.15;53.90;;;19.50;65.10;;;;;;5073123;28;20457;-90
2022/11/10 02:56:56;;;;;;;161.27;48.72;;;19.50;65.40;;;;;;5072868;28;20032;-92
2022/11/10 02:59:22;;;;;;;162.98;47.72;;;19.50;65.30;;;;;;5073414;28;20021;-86
2022/11/10 03:01:48;;;;;;;156.50;46.95;;;19.50;65.30;;;;;;5054295;28;20040;-92
2022/11/10 03:04:13;;;;;;;137.35;46.40;;;19.60;64.90;;;;;;5032642;28;20024;-92
2022/11/10 03:06:39;;;;;;;231.25;51.55;;;19.60;64.60;;;;;;5049989;28;20037;-93
2022/11/10 03:09:05;;;;;;;197.48;49.28;;;19.40;65.10;;;;;;5033466;28;20120;-89
2022/11/10 03:11:31;;;;;;;171.18;46.85;;;19.40;65.20;;;;;;5036628;28;20141;-85
2022/11/10 03:13:56;;;;;;;193.27;48.40;;;19.40;65.40;;;;;;5049390;28;20642;-87
2022/11/10 03:16:22;;;;;;;174.73;48.60;;;19.40;65.60;;;;;;5033090;28;20488;-88
2022/11/10 03:18:48;;;;;;;203.20;50.95;;;19.40;65.30;;;;;;5051369;28;20029;-91
2022/11/10 03:21:13;;;;;;;194.85;50.45;;;19.50;65.30;;;;;;5051709;28;20115;-86
2022/11/10 03:23:39;;;;;;;173.52;49.90;;;19.60;64.70;;;;;;5052027;28;20028;-87
2022/11/10 03:26:06;;;;;;;162.40;46.70;;;19.70;64.70;;;;;;5054147;28;20465;-85
2022/11/10 03:28:32;;;;;;;141.90;43.47;;;19.80;64.30;;;;;;5046157;28;20021;-89
2022/11/10 03:30:57;;;;;;;137.93;44.58;;;19.60;64.60;;;;;;5056086;28;20033;-91
2022/11/10 03:33:23;;;;;;;189.77;49.85;;;19.50;65.10;;;;;;5054910;28;20025;-88
2022/11/10 03:35:49;;;;;;;155.55;46.55;;;19.50;64.80;;;;;;5039269;28;20040;-87
2022/11/10 03:38:15;;;;;;;153.40;45.55;;;19.60;64.40;;;;;;5059353;28;20058;-87
2022/11/10 03:40:40;;;;;;;149.82;44.60;;;19.60;64.50;;;;;;5056100;28;20473;-88
2022/11/10 03:43:06;;;;;;;154.80;47.00;;;19.50;64.90;;;;;;5052562;28;20112;-87
2022/11/10 03:45:32;;;;;;;151.45;46.08;;;19.40;65.00;;;;;;5053688;28;20090;-87
2022/11/10 03:47:57;;;;;;;154.55;46.35;;;19.30;65.30;;;;;;5052137;28;20041;-88
2022/11/10 03:50:23;;;;;;;178.77;49.45;;;19.30;65.40;;;;;;5045082;28;20100;-90
2022/11/10 03:52:49;;;;;;;155.63;47.10;;;19.40;65.20;;;;;;5040311;28;20034;-87
2022/11/10 03:55:17;;;;;;;131.77;43.05;;;19.60;64.90;;;;;;5054919;28;20025;-87
2022/11/10 03:57:43;;;;;;;107.47;38.28;;;19.50;65.00;;;;;;5052134;28;20045;-90
2022/11/10 04:00:11;;;;;;;94.40;36.58;;;19.10;65.70;;;;;;5042433;28;20373;-86
2022/11/10 04:02:37;;;;;;;114.50;39.85;;;19.00;65.90;;;;;;5055571;28;20033;-86
2022/11/10 04:10:42;;;;;;;102.13;37.63;;;19.40;64.60;;;;;;5047712;28;20110;-91
2022/11/10 04:15:51;;;;;;;91.28;35.22;;;19.40;64.70;;;;;;5057269;28;20082;-89
2022/11/10 04:18:20;;;;;;;86.70;34.50;;;19.40;64.40;;;;;;5055339;28;20032;-86
2022/11/10 04:20:53;;;;;;;97.65;36.10;;;19.30;64.50;;;;;;5055318;28;20123;-89
2022/11/10 04:23:26;;;;;;;91.53;35.92;;;19.00;65.70;;;;;;5047972;28;20135;-89
2022/11/10 04:28:53;;;;;;;97.60;39.13;;;19.40;64.60;;;;;;5049862;28;20035;-89
2022/11/10 04:31:21;;;;;;;86.00;34.38;;;19.60;64.20;;;;;;5051798;28;20018;-89
2022/11/10 04:33:48;;;;;;;84.35;35.25;;;19.70;63.50;;;;;;5043264;28;20432;-86
2022/11/10 04:36:17;;;;;;;70.45;31.55;;;19.50;64.00;;;;;;5055318;28;20045;-90
2022/11/10 04:38:43;;;;;;;93.55;36.35;;;19.30;64.20;;;;;;5042612;28;20048;-88
2022/11/10 04:41:09;;;;;;;79.78;34.10;;;19.20;64.50;;;;;;5054507;28;20377;-88
2022/11/10 04:43:36;;;;;;;85.10;33.72;;;19.30;64.50;;;;;;5051697;28;20025;-89
2022/11/10 04:46:02;;;;;;;91.22;35.65;;;19.30;64.40;;;;;;5047175;28;20056;-92
2022/11/10 04:48:29;;;;;;;72.10;31.52;;;19.30;64.50;;;;;;5051490;28;20021;-91
2022/11/10 04:50:55;;;;;;;94.07;35.72;;;19.20;64.50;;;;;;5046009;28;20131;-91
2022/11/10 04:53:21;;;;;;;92.68;36.40;;;19.20;64.70;;;;;;5051285;28;20030;-85
2022/11/10 04:55:47;;;;;;;81.55;33.50;;;19.10;64.80;;;;;;5034783;28;20029;-88
2022/11/10 04:58:13;;;;;;;86.32;35.85;;;19.30;64.10;;;;;;5050726;28;20043;-85
2022/11/10 05:00:40;;;;;;;85.50;35.78;;;19.30;64.10;;;;;;5054261;28;20027;-88
2022/11/10 05:03:09;;;;;;;89.68;35.25;;;19.40;64.10;;;;;;5054228;28;20412;-90
2022/11/10 05:05:34;;;;;;;85.32;33.85;;;19.40;63.90;;;;;;5055535;28;20064;-92
2022/11/10 05:08:01;;;;;;;94.78;35.63;;;19.30;64.00;;;;;;5052516;28;20053;-89
2022/11/10 05:10:27;;;;;;;83.63;32.55;;;19.30;63.90;;;;;;5054583;28;20500;-88
2022/11/10 05:12:56;;;;;;;85.05;33.10;;;19.30;64.20;;;;;;5049024;28;20541;-88
2022/11/10 05:15:23;;;;;;;95.05;34.70;;;19.30;63.90;;;;;;5054688;28;20029;-92
2022/11/10 05:17:50;;;;;;;78.68;33.55;;;19.20;64.60;;;;;;5053345;28;20029;-85
2022/11/10 05:20:20;;;;;;;82.38;33.85;;;19.10;64.50;;;;;;5054332;28;20112;-89
2022/11/10 05:23:36;;;;;;;82.22;34.13;;;19.10;64.50;;;;;;5054201;28;20021;-86
2022/11/10 05:25:34;;;;;;;84.70;34.30;;;19.10;63.90;;;;;;5046324;28;20052;-84
2022/11/10 05:28:00;;;;;;;83.80;33.63;;;19.10;64.30;;;;;;5044354;28;20025;-84
2022/11/10 05:30:26;;;;;;;72.45;30.77;;;19.10;64.30;;;;;;5034663;28;20029;-91
2022/11/10 05:32:51;;;;;;;77.85;32.50;;;19.10;63.80;;;;;;5050832;28;20094;-86
2022/11/10 05:35:17;;;;;;;85.15;33.17;;;19.00;64.60;;;;;;5054415;28;20026;-95
2022/11/10 05:37:43;;;;;;;76.75;32.13;;;19.00;64.20;;;;;;5051492;28;20040;-82
2022/11/10 05:40:09;;;;;;;82.30;32.85;;;19.00;64.10;;;;;;5034233;28;20483;-88
2022/11/10 05:42:51;;;;;;;86.75;34.25;;;18.90;64.40;;;;;;5034111;28;20033;-90
2022/11/10 05:45:18;;;;;;;80.38;34.08;;;18.80;64.30;;;;;;5048613;28;20087;-85
2022/11/10 05:47:44;;;;;;;87.63;35.17;;;18.70;64.90;;;;;;5035296;28;20081;-83
2022/11/10 05:50:10;;;;;;;88.07;34.42;;;18.60;65.30;;;;;;5052012;28;20120;-80
2022/11/10 05:52:43;;;;;;;88.90;34.28;;;18.60;65.30;;;;;;5052796;28;20531;-89
2022/11/10 05:55:09;;;;;;;87.10;35.13;;;18.70;65.10;;;;;;5048588;28;20471;-85
2022/11/10 05:57:35;;;;;;;89.13;34.95;;;18.90;64.70;;;;;;5052827;28;20043;-91
2022/11/10 06:00:02;;;;;;;94.15;36.13;;;19.00;64.60;;;;;;5033254;28;20121;-91
2022/11/10 06:02:28;;;;;;;87.45;35.70;;;19.10;64.10;;;;;;5033725;28;20372;-92
2022/11/10 06:04:53;;;;;;;79.28;32.83;;;19.00;64.50;;;;;;5041427;28;20075;-83
2022/11/10 06:07:19;;;;;;;86.93;34.80;;;18.90;64.20;;;;;;5053351;28;20474;-85
2022/11/10 06:09:47;;;;;;;86.07;34.53;;;18.70;65.60;;;;;;5055796;28;20032;-92
2022/11/10 06:12:13;;;;;;;74.25;31.95;;;18.50;65.70;;;;;;5055121;28;20135;-83
2022/11/10 06:14:38;;;;;;;92.68;35.53;;;18.60;65.70;;;;;;5054780;28;20033;-86
2022/11/10 06:17:04;;;;;;;87.47;34.13;;;18.70;65.20;;;;;;5054601;28;20062;-89
2022/11/10 06:19:33;;;;;;;80.72;32.67;;;18.70;65.50;;;;;;5057449;28;20017;-93
2022/11/10 06:21:59;;;;;;;93.05;34.90;;;18.80;65.10;;;;;;5054165;28;20024;-85
2022/11/10 06:24:24;;;;;;;85.38;33.97;;;18.80;65.20;;;;;;5054711;28;20482;-82
2022/11/10 06:26:50;;;;;;;84.90;32.58;;;18.70;65.60;;;;;;5055622;28;20070;-87
2022/11/10 06:29:19;;;;;;;84.38;32.63;;;18.60;65.90;;;;;;5055296;28;20021;-87
2022/11/10 06:31:45;;;;;;;91.95;35.47;;;18.60;65.50;;;;;;5056206;28;20025;-83
2022/11/10 06:34:11;;;;;;;102.18;35.65;;;18.80;65.60;;;;;;5057685;28;20025;-93
2022/11/10 06:36:39;;;;;;;92.55;35.17;;;18.80;64.80;;;;;;5049354;28;20048;-93
2022/11/10 06:39:08;;;;;;;91.82;34.72;;;18.80;65.60;;;;;;5055357;28;20032;-89
2022/11/10 06:41:34;;;;;;;95.38;34.70;;;18.70;65.70;;;;;;5056687;28;20025;-86
2022/11/10 06:44:01;;;;;;;85.07;34.25;;;18.30;66.60;;;;;;5042609;28;20021;-92
2022/11/10 06:46:26;;;;;;;95.32;35.20;;;17.80;67.40;;;;;;5053654;28;20041;-91
2022/11/10 06:48:52;;;;;;;95.03;34.25;;;17.50;68.80;;;;;;5055702;28;20481;-91
2022/11/10 06:51:18;;;;;;;90.05;34.20;;;17.70;68.50;;;;;;5046840;28;20017;-87
2022/11/10 06:53:43;;;;;;;94.78;35.05;;;18.10;67.00;;;;;;5043761;28;20033;-84
2022/11/10 06:56:09;;;;;;;101.30;35.55;;;18.40;66.50;;;;;;5049989;28;20541;-84
2022/11/10 06:58:35;;;;;;;104.32;37.92;;;18.60;66.30;;;;;;5054823;28;20033;-88
2022/11/10 07:01:01;;;;;;;105.13;39.03;;;18.70;66.10;;;;;;5055412;28;20021;-90
2022/11/10 07:03:27;;;;;;;101.70;36.53;;;18.80;66.10;;;;;;5057548;28;20025;-87
2022/11/10 07:05:53;;;;;;;93.88;35.35;;;18.80;65.80;;;;;;5059556;28;20061;-91
2022/11/10 07:08:18;;;;;;;94.10;35.72;;;18.80;66.30;;;;;;5057693;28;20367;-82
2022/11/10 07:10:52;;;;;;;98.32;35.08;;;19.00;65.40;;;;;;5055384;28;20051;-91
2022/11/10 07:13:19;;;;;;;95.35;37.28;;;18.80;66.30;;;;;;5055786;28;20051;-86
2022/11/10 07:15:46;;;;;;;90.35;33.83;;;18.70;65.90;;;;;;5059116;28;20036;-87
2022/11/10 07:18:11;;;;;;;83.35;31.80;;;18.90;65.80;;;;;;5053398;28;20075;-94
2022/11/10 07:20:37;;;;;;;92.28;35.15;;;19.10;65.30;;;;;;5049138;28;20021;-94
2022/11/10 07:23:06;;;;;;;89.63;34.95;;;19.30;64.70;;;;;;5054651;28;20020;-91
2022/11/10 07:25:35;;;;;;;89.03;33.03;;;19.10;65.10;;;;;;5053820;28;20029;-85
2022/11/10 07:28:05;;;;;;;89.20;32.97;;;19.00;65.50;;;;;;5054616;28;20025;-88
2022/11/10 07:30:34;;;;;;;84.35;32.92;;;18.90;65.70;;;;;;5054014;28;20028;-87
2022/11/10 07:33:13;;;;;;;84.93;33.60;;;18.80;66.00;;;;;;5036715;28;20029;-88
2022/11/10 07:35:40;;;;;;;74.78;33.40;;;18.80;66.00;;;;;;5037230;28;20021;-92
2022/11/10 07:38:11;;;;;;;80.72;31.98;;;18.90;65.50;;;;;;5046834;28;20025;-84
2022/11/10 07:40:37;;;;;;;72.65;31.95;;;18.80;65.80;;;;;;5040709;28;20017;-91
2022/11/10 07:43:03;;;;;;;86.13;34.42;;;18.70;66.20;;;;;;5034560;28;20037;-87
2022/11/10 07:45:31;;;;;;;75.10;31.60;;;19.00;66.00;;;;;;5035038;28;20124;-89
2022/11/10 07:47:59;;;;;;;85.47;33.53;;;19.10;65.30;;;;;;5050120;28;20387;-89
2022/11/10 07:50:25;;;;;;;76.38;32.25;;;19.30;65.00;;;;;;5054811;28;20032;-86
2022/11/10 07:52:50;;;;;;;69.22;32.00;;;19.60;64.60;;;;;;5050928;28;20017;-95
2022/11/10 07:55:16;;;;;;;69.78;32.53;;;19.60;64.00;;;;;;5047587;28;20025;-83
2022/11/10 07:57:42;;;;;;;77.07;32.45;;;19.40;64.10;;;;;;5054000;28;20041;-84
2022/11/10 08:00:09;;;;;;;70.78;31.35;;;19.30;64.40;;;;;;5052191;28;20028;-88
2022/11/10 08:02:35;;;;;;;70.35;31.23;;;19.10;64.70;;;;;;5048636;28;20025;-90
2022/11/10 08:05:01;;;;;;;76.28;32.47;;;18.80;65.50;;;;;;5033967;28;20021;-88
2022/11/10 08:07:26;;;;;;;71.28;30.42;;;18.60;66.00;;;;;;5052744;28;20028;-91
2022/11/10 08:09:52;;;;;;;67.45;30.42;;;18.50;66.50;;;;;;5049272;28;20025;-85
2022/11/10 08:12:18;;;;;;;63.88;28.98;;;18.70;66.20;;;;;;5053012;28;20125;-88
2022/11/10 08:14:43;;;;;;;71.47;30.45;;;18.90;65.90;;;;;;5055424;28;20417;-84
2022/11/10 08:17:09;;;;;;;64.03;29.75;;;18.90;65.40;;;;;;5056347;28;20064;-94
2022/11/10 08:19:35;;;;;;;71.80;31.63;;;19.10;64.80;;;;;;5057077;28;20060;-86
2022/11/10 08:22:03;;;;;;;67.32;29.77;;;19.40;64.90;;;;;;5056906;28;20017;-88
2022/11/10 08:24:29;;;;;;;68.53;31.52;;;19.60;63.90;;;;;;5054776;28;20358;-92
2022/11/10 08:26:55;;;;;;;62.38;30.80;;;19.60;64.10;;;;;;5054253;28;20503;-84
2022/11/10 08:29:21;;;;;;;64.18;29.27;;;19.50;64.00;;;;;;5054729;28;20021;-86
2022/11/10 08:31:47;;;;;;;62.70;28.67;;;19.50;63.80;;;;;;5053688;28;20056;-84
2022/11/10 08:34:13;;;;;;;62.35;27.70;;;19.40;64.40;;;;;;5054184;28;20032;-89
2022/11/10 08:36:39;;;;;;;58.45;27.30;;;19.70;64.00;;;;;;5054261;28;20386;-89
2022/11/10 08:39:05;;;;;;;57.60;26.83;;;20.30;62.90;;;;;;5054633;28;20560;-83
2022/11/10 08:41:30;;;;;;;49.35;26.00;;;21.10;61.20;;;;;;5054941;28;20025;-85
2022/11/10 08:43:56;;;;;;;54.80;27.33;;;21.90;59.60;;;;;;5054863;28;20025;-83
2022/11/10 08:46:22;;;;;;;55.22;27.55;;;22.10;58.80;;;;;;5054790;28;20037;-85
2022/11/10 08:48:47;;;;;;;51.53;27.30;;;22.40;58.30;;;;;;5054786;28;20044;-85
2022/11/10 08:51:13;;;;;;;55.00;27.70;;;22.60;58.00;;;;;;5054829;28;20114;-84
2022/11/10 08:53:39;;;;;;;52.42;27.50;;;23.10;57.10;;;;;;5055009;28;20070;-87
2022/11/10 08:56:05;;;;;;;54.67;27.67;;;23.00;56.80;;;;;;5054667;28;20029;-83
2022/11/10 08:58:30;;;;;;;52.25;26.60;;;23.20;57.10;;;;;;5071479;28;20465;-84
2022/11/10 09:00:56;;;;;;;48.60;25.77;;;23.60;56.90;;;;;;5054945;28;20025;-86
2022/11/10 09:03:24;;;;;;;48.92;26.50;;;23.90;56.10;;;;;;5054580;28;20406;-84
2022/11/10 09:05:51;;;;;;;50.80;28.42;;;24.50;54.80;;;;;;5054769;28;20021;-92
2022/11/10 09:08:17;;;;;;;53.42;26.73;;;24.20;54.70;;;;;;5054598;28;20033;-84
2022/11/10 09:10:49;;;;;;;48.63;26.50;;;23.60;55.80;;;;;;5054591;28;20079;-86
2022/11/10 09:13:16;;;;;;;49.45;27.35;;;23.50;56.50;;;;;;5054577;28;20024;-87
2022/11/10 09:15:43;;;;;;;49.88;26.88;;;23.50;56.30;;;;;;5054795;28;20033;-86
2022/11/10 09:18:11;;;;;;;50.97;27.05;;;23.80;56.30;;;;;;5054676;28;20041;-84
2022/11/10 09:20:38;;;;;;;50.28;27.17;;;23.60;55.50;;;;;;5054023;28;20021;-86
2022/11/10 09:23:13;;;;;;;55.78;28.90;;;22.50;57.50;;;;;;5053703;28;20056;-87
2022/11/10 09:25:39;;;;;;;50.88;27.15;;;21.80;58.00;;;;;;5054238;28;20028;-81
2022/11/10 09:28:10;;;;;;;53.72;27.42;;;21.50;59.20;;;;;;5054056;28;20018;-81
2022/11/10 09:30:35;;;;;;;;;;;20.70;60.90;;;;;;5054584;28;20116;-85
2022/11/10 09:33:01;;;;;;;54.25;25.98;;;20.50;60.80;;;;;;5054476;28;19905;-93
2022/11/10 09:35:27;;;;;;;52.42;25.45;;;20.50;61.80;;;;;;5054150;28;20120;-86
2022/11/10 09:37:53;;;;;;;54.63;26.77;;;20.70;61.30;;;;;;5054280;28;20037;-90
2022/11/10 09:40:30;;;;;;;52.28;26.33;;;20.70;60.80;;;;;;5054422;28;20021;-85
2022/11/10 09:42:59;;;;;;;46.30;24.63;;;20.80;60.80;;;;;;5053721;28;20079;-84
2022/11/10 09:45:41;;;;;;;46.03;24.63;;;21.10;60.80;;;;;;5054305;28;20056;-88
2022/11/10 09:48:28;;;;;;;43.45;24.05;;;21.20;59.80;;;;;;5053766;28;20045;-82
2022/11/10 09:51:03;;;;;;;47.92;26.63;;;21.30;59.80;;;;;;5054145;28;20031;-86
2022/11/10 09:53:40;;;;;;;50.42;30.20;;;21.10;59.20;;;;;;5053737;28;20116;-89
2022/11/10 09:56:06;;;;;;;39.67;23.10;;;20.80;59.90;;;;;;5053838;28;20121;-85
2022/11/10 09:58:43;;;;;;;41.17;23.58;;;20.50;60.90;;;;;;5053885;28;20572;-88
2022/11/10 10:01:28;;;;;;;41.83;23.83;;;20.20;61.10;;;;;;5054250;28;20481;-83
2022/11/10 10:04:10;;;;;;;41.15;22.98;;;20.30;61.20;;;;;;5053747;28;20162;-84
2022/11/10 10:06:46;;;;;;;39.42;22.48;;;20.30;61.00;;;;;;5053443;28;20033;-88
2022/11/10 10:09:28;;;;;;;45.65;26.00;;;20.30;60.00;;;;;;5053565;28;20078;-86
2022/11/10 10:12:23;;;;;;;40.33;22.70;;;20.20;60.90;;;;;;5053139;28;20024;-82
2022/11/10 10:14:59;;;;;;;37.53;21.88;;;20.40;60.20;;;;;;5053249;28;20033;-85
2022/11/10 10:17:45;;;;;;;41.30;23.00;;;20.50;60.30;;;;;;5052815;28;20110;-88
2022/11/10 10:20:41;;;;;;;49.90;25.52;;;20.90;60.50;;;;;;5053164;28;20355;-92
2022/11/10 10:23:18;;;;;;;49.20;26.55;;;21.00;59.90;;;;;;5053107;28;20052;-88
2022/11/10 10:25:45;;;;;;;49.92;25.70;;;21.00;60.60;;;;;;5053117;28;20056;-88
2022/11/10 10:28:26;;;;;;;50.42;26.98;;;21.20;60.50;;;;;;5053156;28;20113;-88
2022/11/10 10:30:53;;;;;;;48.63;26.25;;;21.40;59.00;;;;;;5053625;28;20028;-85
2022/11/10 10:33:21;;;;;;;45.13;24.77;;;21.00;60.20;;;;;;5052693;28;20052;-84
2022/11/10 10:35:48;;;;;;;41.63;23.65;;;20.80;60.00;;;;;;5052835;28;20029;-81
2022/11/10 10:38:30;;;;;;;53.78;26.48;;;20.90;61.40;;;;;;5052734;28;20124;-90
2022/11/10 10:41:09;;;;;;;43.63;24.27;;;21.10;60.30;;;;;;5052704;28;20028;-90
2022/11/10 10:43:35;;;;;;;45.03;25.20;;;20.80;60.50;;;;;;5053146;28;20025;-87
2022/11/10 10:46:09;;;;;;;52.92;28.83;;;20.60;60.90;;;;;;5052388;28;20021;-88
2022/11/10 10:48:35;;;;;;;51.17;27.63;;;20.60;61.10;;;;;;5052452;28;20033;-89
2022/11/10 10:51:01;;;;;;;53.00;26.10;;;20.30;61.80;;;;;;5052620;28;20052;-83
2022/11/10 10:53:26;;;;;;;50.53;27.48;;;20.40;61.30;;;;;;5053108;28;20283;-87
2022/11/10 10:56:16;;;;;;;46.97;24.88;;;20.10;62.00;;;;;;5052728;28;20033;-91
2022/11/10 10:58:57;;;;;;;51.75;26.63;;;19.80;62.00;;;;;;5053794;28;20055;-82
2022/11/10 11:01:30;;;;;;;56.08;28.90;;;19.30;63.40;;;;;;5052575;28;20025;-84
2022/11/10 11:03:57;;;;;;;62.53;32.28;;;19.20;63.90;;;;;;5052378;28;20025;-88
2022/11/10 11:06:30;;;;;;;50.30;27.33;;;19.50;63.70;;;;;;5052462;28;20033;-84
2022/11/10 11:09:18;;;;;;;49.67;27.35;;;19.40;63.80;;;;;;5052697;28;20017;-84
2022/11/10 11:11:58;;;;;;;52.00;27.73;;;19.30;63.40;;;;;;5053104;28;20056;-87
2022/11/10 11:14:29;;;;;;;48.60;26.70;;;18.90;64.30;;;;;;5052484;28;20120;-92
2022/11/10 11:17:00;;;;;;;52.42;27.90;;;19.00;64.20;;;;;;5053504;28;20032;-93
2022/11/10 11:19:37;;;;;;;52.05;26.80;;;19.20;64.30;;;;;;5053457;28;20021;-86
2022/11/10 11:22:30;;;;;;;52.78;27.20;;;19.10;64.60;;;;;;5052717;28;20127;-85
2022/11/10 11:25:30;;;;;;;52.95;26.17;;;19.10;64.00;;;;;;5053117;28;20103;-84
2022/11/10 11:28:05;;;;;;;57.08;30.95;;;19.10;64.00;;;;;;5052433;28;20156;-86
2022/11/10 11:30:50;;;;;;;54.05;28.55;;;19.40;63.80;;;;;;5052677;28;20033;-91
2022/11/10 11:33:54;;;;;;;57.33;27.65;;;19.50;63.50;;;;;;5052201;28;20147;-84
2022/11/10 11:36:27;;;;;;;53.33;27.98;;;19.60;62.90;;;;;;5051578;28;20037;-85
2022/11/10 11:38:58;;;;;;;47.78;26.55;;;19.60;63.30;;;;;;5052058;28;20025;-87
2022/11/10 11:41:46;;;;;;;53.85;27.48;;;19.60;63.00;;;;;;5052028;28;20021;-81
2022/11/10 11:44:18;;;;;;;49.95;25.52;;;19.70;62.70;;;;;;5052027;28;20496;-81
2022/11/10 11:47:01;;;;;;;47.80;24.52;;;19.70;62.40;;;;;;5053961;28;20049;-88
2022/11/10 11:50:06;;;;;;;46.70;24.63;;;19.70;62.60;;;;;;5057551;28;20025;-88
2022/11/10 11:53:04;;;;;;;49.75;24.92;;;19.60;63.10;;;;;;5057050;28;20036;-84
2022/11/10 11:55:49;;;;;;;42.83;21.73;;;19.70;63.10;;;;;;5056891;28;20025;-91
2022/11/10 11:58:52;;;;;;;48.42;24.90;;;19.80;62.30;;;;;;5058000;28;20041;-91
2022/11/10 12:02:02;;;;;;;49.83;26.48;;;19.80;62.70;;;;;;4996422;28;20026;-87
2022/11/10 12:04:34;;;;;;;49.80;26.83;;;20.20;61.20;;;;;;4979878;28;20030;-91
2022/11/10 12:07:30;;;;;;;49.35;26.60;;;20.10;61.90;;;;;;4980077;28;20140;-88
2022/11/10 12:10:19;;;;;;;48.83;25.40;;;20.10;61.60;;;;;;4979916;28;20034;-85
2022/11/10 12:13:25;;;;;;;46.80;25.05;;;19.90;62.70;;;;;;4979943;28;20527;-86
2022/11/10 12:15:50;;;;;;;46.30;24.23;;;19.70;62.40;;;;;;4979371;28;20037;-86
2022/11/10 12:18:19;;;;;;;46.17;24.70;;;19.50;62.70;;;;;;4979325;28;20034;-82
2022/11/10 12:21:14;;;;;;;53.20;26.80;;;19.50;62.50;;;;;;4980460;28;20434;-95
2022/11/10 12:23:58;;;;;;;71.57;33.13;;;19.00;63.90;;;;;;4995393;28;20372;-89
2022/11/10 12:26:44;;;;;;;57.20;28.35;;;19.30;63.60;;;;;;4980272;28;20029;-88
2022/11/10 12:29:47;;;;;;;59.90;27.85;;;19.40;63.30;;;;;;4995104;28;20035;-82
2022/11/10 12:32:32;;;;;;;52.72;25.95;;;19.30;63.30;;;;;;4978953;28;20498;-85
2022/11/10 12:35:13;;;;;;;50.72;25.92;;;19.00;63.60;;;;;;5005227;28;20076;-89
2022/11/10 12:38:06;;;;;;;59.67;28.95;;;18.90;64.30;;;;;;5056136;28;20041;-85
2022/11/10 12:40:42;;;;;;;53.05;26.83;;;19.00;63.80;;;;;;5055536;28;20040;-88
2022/11/10 12:43:21;;;;;;;53.55;27.67;;;18.60;64.80;;;;;;5056423;28;20385;-90
2022/11/10 12:45:53;;;;;;;55.67;28.55;;;18.70;64.70;;;;;;5056525;28;20035;-92
2022/11/10 12:48:20;;;;;;;61.83;28.88;;;18.80;64.80;;;;;;5055293;28;20041;-92
2022/11/10 12:51:11;;;;;;;55.20;28.30;;;18.80;64.60;;;;;;5055475;28;20029;-89